Time;durP1;ratioP1;P1;durP2;ratioP2;P2;SDS_P1;SDS_P2;PMS_P1;PMS_P2;Temp;Humidity;BMP_temperature;BMP_pressure;BME280_temperature;BME280_humidity;BME280_pressure;Samples;Min_cycle;Max_cycle;Signal;HPM_P1;HPM_P2
2022/06/02 00:01:20;;;;;;;5.90;5.38;;;9.70;99.90;;;;;;5020123;28;20049;-70
2022/06/02 00:03:52;;;;;;;5.25;4.43;;;9.70;99.90;;;;;;5021784;28;20063;-71
2022/06/02 00:06:50;;;;;;;6.75;5.20;;;9.70;99.90;;;;;;5021140;28;20045;-71
2022/06/02 00:09:40;;;;;;;6.28;5.05;;;9.70;99.90;;;;;;5021943;28;20048;-70
2022/06/02 00:12:18;;;;;;;7.90;5.38;;;9.70;99.90;;;;;;5021030;28;20050;-71
2022/06/02 00:14:50;;;;;;;5.72;5.20;;;9.70;99.90;;;;;;5021565;28;20559;-70
2022/06/02 00:17:53;;;;;;;5.82;5.22;;;9.70;99.90;;;;;;5022810;28;20102;-71
2022/06/02 00:20:29;;;;;;;4.63;4.28;;;9.70;99.90;;;;;;5021586;28;20061;-71
2022/06/02 00:23:16;;;;;;;9.18;4.70;;;9.70;99.90;;;;;;5022526;28;20776;-71
2022/06/02 00:25:49;;;;;;;5.47;4.40;;;9.60;99.90;;;;;;5022774;28;20053;-71
2022/06/02 00:28:29;;;;;;;5.18;4.53;;;9.60;99.90;;;;;;5022801;28;20042;-71
2022/06/02 00:30:55;;;;;;;6.05;4.75;;;9.60;99.90;;;;;;5021509;28;20092;-71
2022/06/02 00:33:28;;;;;;;4.15;3.75;;;9.50;99.90;;;;;;5022594;28;20089;-71
2022/06/02 00:36:13;;;;;;;5.45;4.32;;;9.50;99.90;;;;;;5022498;28;20064;-71
2022/06/02 00:38:39;;;;;;;5.53;4.97;;;9.50;99.90;;;;;;5020613;28;20046;-70
2022/06/02 00:41:33;;;;;;;4.65;4.25;;;9.50;99.90;;;;;;5022336;28;20080;-71
2022/06/02 00:44:27;;;;;;;4.15;3.85;;;9.40;99.90;;;;;;5022918;28;20050;-71
2022/06/02 00:46:59;;;;;;;4.55;4.15;;;9.40;99.90;;;;;;5022414;28;20669;-71
2022/06/02 00:49:43;;;;;;;5.00;4.50;;;9.30;99.90;;;;;;5020897;28;20049;-71
2022/06/02 00:52:11;;;;;;;4.97;4.47;;;9.30;99.90;;;;;;5020535;28;20557;-71
2022/06/02 00:58:27;;;;;;;5.32;4.80;;;9.30;99.90;;;;;;5021216;28;20114;-71
2022/06/02 01:01:08;;;;;;;4.22;3.88;;;9.20;99.90;;;;;;4961010;28;20105;-70
2022/06/02 01:03:47;;;;;;;5.07;3.92;;;9.20;99.90;;;;;;4944385;28;20047;-71
2022/06/02 01:06:23;;;;;;;5.47;4.32;;;9.20;99.90;;;;;;4994150;28;20076;-70
2022/06/02 01:09:07;;;;;;;5.30;4.80;;;9.30;99.90;;;;;;5021406;28;20188;-71
2022/06/02 01:12:01;;;;;;;3.70;3.40;;;9.20;99.90;;;;;;5001248;28;20057;-71
2022/06/02 01:14:55;;;;;;;4.35;3.65;;;9.20;99.90;;;;;;5016504;28;20045;-70
2022/06/02 01:17:38;;;;;;;4.57;4.13;;;9.10;99.90;;;;;;5020115;28;20351;-71
2022/06/02 01:20:25;;;;;;;4.15;3.80;;;9.10;99.90;;;;;;5020548;28;20077;-71
2022/06/02 01:23:17;;;;;;;9.75;5.20;;;9.10;99.90;;;;;;5021056;28;20581;-71
2022/06/02 01:26:16;;;;;;;3.72;3.47;;;9.00;99.90;;;;;;5020903;28;20052;-71
2022/06/02 01:29:08;;;;;;;4.47;3.75;;;9.00;99.90;;;;;;5020576;28;20137;-71
2022/06/02 01:32:00;;;;;;;5.63;4.15;;;8.90;99.90;;;;;;5020922;28;20061;-71
2022/06/02 01:34:58;;;;;;;5.65;5.15;;;8.90;99.90;;;;;;5021263;28;20050;-71
2022/06/02 01:37:47;;;;;;;4.47;4.07;;;8.90;99.90;;;;;;5020346;28;20120;-71
2022/06/02 01:40:20;;;;;;;4.22;3.83;;;8.90;99.90;;;;;;5021594;28;20060;-71
2022/06/02 01:43:20;;;;;;;5.38;3.83;;;8.90;99.90;;;;;;5022089;28;20041;-71
2022/06/02 01:46:23;;;;;;;3.53;3.33;;;8.90;99.90;;;;;;5022271;28;20053;-71
2022/06/02 01:49:16;;;;;;;4.93;4.43;;;8.90;99.90;;;;;;4960357;28;20469;-71
2022/06/02 01:51:59;;;;;;;13.73;5.03;;;8.90;99.90;;;;;;4983755;28;20485;-71
2022/06/02 01:54:39;;;;;;;4.55;4.15;;;8.90;99.90;;;;;;5001279;28;20499;-70
2022/06/02 01:57:24;;;;;;;8.27;4.47;;;8.80;99.90;;;;;;5000344;28;20053;-71
2022/06/02 02:00:19;;;;;;;3.78;3.47;;;8.80;99.90;;;;;;5000364;28;20046;-70
2022/06/02 02:03:10;;;;;;;4.68;4.28;;;8.70;99.90;;;;;;5000056;28;20120;-71
2022/06/02 02:05:49;;;;;;;3.75;3.45;;;8.70;99.90;;;;;;5001153;28;20062;-70
2022/06/02 02:08:41;;;;;;;3.78;3.47;;;8.70;99.90;;;;;;5019805;28;20045;-71
2022/06/02 02:11:38;;;;;;;4.07;3.33;;;8.70;99.90;;;;;;5020332;28;20038;-71
2022/06/02 02:14:18;;;;;;;5.47;4.55;;;8.70;99.90;;;;;;5020385;28;20408;-70
2022/06/02 02:17:27;;;;;;;7.38;4.47;;;8.70;99.90;;;;;;5021584;28;20043;-71
2022/06/02 02:20:07;;;;;;;4.47;4.07;;;8.70;99.90;;;;;;4944000;28;20047;-71
2022/06/02 02:22:38;;;;;;;6.25;4.13;;;8.70;99.90;;;;;;4993917;28;20142;-71
2022/06/02 02:25:21;;;;;;;5.38;4.43;;;8.70;99.90;;;;;;5000396;28;20057;-71
2022/06/02 02:28:03;;;;;;;5.45;4.60;;;8.70;99.90;;;;;;5000652;28;20049;-71
2022/06/02 02:30:49;;;;;;;;;;;8.60;99.90;;;;;;5002703;28;20041;-70
2022/06/02 02:33:46;;;;;;;3.40;3.20;;;8.60;99.90;;;;;;4994143;28;19925;-70
2022/06/02 02:36:31;;;;;;;4.18;3.50;;;8.60;99.90;;;;;;5003976;28;20516;-70
2022/06/02 02:39:14;;;;;;;5.38;4.90;;;8.60;99.90;;;;;;5004813;28;20049;-70
2022/06/02 02:41:48;;;;;;;4.97;4.38;;;8.60;99.90;;;;;;5005213;28;20046;-71
2022/06/02 02:44:17;;;;;;;5.43;4.22;;;8.60;99.90;;;;;;5014567;28;20037;-71
2022/06/02 02:47:09;;;;;;;4.50;4.10;;;8.60;99.90;;;;;;5023561;28;20049;-71
2022/06/02 02:49:55;;;;;;;3.90;3.55;;;8.60;99.90;;;;;;5024938;28;20052;-71
2022/06/02 02:52:26;;;;;;;4.70;4.30;;;8.60;99.90;;;;;;5024584;28;20076;-71
2022/06/02 02:55:12;;;;;;;4.32;3.92;;;8.50;99.90;;;;;;5023922;28;20080;-71
2022/06/02 02:58:00;;;;;;;4.88;3.55;;;8.50;99.90;;;;;;5024578;28;20053;-71
2022/06/02 03:00:33;;;;;;;3.20;3.00;;;8.50;99.90;;;;;;5006988;28;20041;-70
2022/06/02 03:03:05;;;;;;;4.72;3.45;;;8.50;99.90;;;;;;5024557;28;20045;-70
2022/06/02 03:05:49;;;;;;;3.60;3.38;;;8.50;99.90;;;;;;5023102;28;20551;-71
2022/06/02 03:08:29;;;;;;;3.05;2.83;;;8.50;99.90;;;;;;5023014;28;20080;-71
2022/06/02 03:11:02;;;;;;;4.22;3.75;;;8.50;99.90;;;;;;5024246;28;20051;-71
2022/06/02 03:13:38;;;;;;;3.92;3.67;;;8.50;99.90;;;;;;5023164;28;20056;-70
2022/06/02 03:16:11;;;;;;;5.20;4.22;;;8.40;99.90;;;;;;5022829;28;20045;-71
2022/06/02 03:19:02;;;;;;;4.28;3.13;;;8.40;99.90;;;;;;5024066;28;20042;-70
2022/06/02 03:21:34;;;;;;;4.43;4.05;;;8.40;99.90;;;;;;5025058;28;20050;-70
2022/06/02 03:24:22;;;;;;;3.38;3.08;;;8.40;99.90;;;;;;5022238;28;20072;-71
2022/06/02 03:27:00;;;;;;;4.93;3.97;;;8.40;99.90;;;;;;5024132;28;20060;-70
2022/06/02 03:29:55;;;;;;;3.75;3.45;;;8.40;99.90;;;;;;5023079;28;20716;-71
2022/06/02 03:32:51;;;;;;;2.85;2.65;;;8.40;99.90;;;;;;5024035;28;20527;-71
2022/06/02 03:35:31;;;;;;;3.45;3.22;;;8.40;99.90;;;;;;5022115;28;20049;-71
2022/06/02 03:38:27;;;;;;;4.80;3.90;;;8.40;99.90;;;;;;5022097;28;20094;-71
2022/06/02 03:40:56;;;;;;;5.22;3.55;;;8.30;99.90;;;;;;5022441;28;20119;-70
2022/06/02 03:43:30;;;;;;;4.75;4.35;;;8.30;99.90;;;;;;5022069;28;20102;-70
2022/06/02 03:46:21;;;;;;;4.55;3.35;;;8.30;99.90;;;;;;5023910;28;20480;-70
2022/06/02 03:49:22;;;;;;;4.47;3.45;;;8.30;99.90;;;;;;5002589;28;20144;-70
2022/06/02 03:52:08;;;;;;;4.93;3.95;;;8.30;99.90;;;;;;5003919;28;20117;-70
2022/06/02 03:54:43;;;;;;;2.97;2.70;;;8.40;99.90;;;;;;5002988;28;20041;-71
2022/06/02 03:57:17;;;;;;;4.57;3.85;;;8.40;99.90;;;;;;5003488;28;20046;-71
2022/06/02 03:59:59;;;;;;;4.22;3.83;;;8.40;99.90;;;;;;5003227;28;20045;-70
2022/06/02 04:02:32;;;;;;;7.05;3.67;;;8.50;99.90;;;;;;5016394;28;20120;-71
2022/06/02 04:05:38;;;;;;;3.67;3.38;;;8.50;99.90;;;;;;5023399;28;20069;-71
2022/06/02 04:08:36;;;;;;;4.72;4.28;;;8.60;99.90;;;;;;4982311;28;20046;-71
2022/06/02 04:11:20;;;;;;;4.57;3.78;;;8.60;99.90;;;;;;4977979;28;20061;-71
2022/06/02 04:14:11;;;;;;;4.68;4.28;;;8.60;99.90;;;;;;5021194;28;20052;-71
2022/06/02 04:17:14;;;;;;;6.05;3.63;;;8.60;99.90;;;;;;5021845;28;20187;-71
2022/06/02 04:20:35;;;;;;;5.90;4.68;;;8.70;99.90;;;;;;5004842;28;20091;-71
2022/06/02 04:23:39;;;;;;;5.13;3.20;;;8.70;99.90;;;;;;4997496;28;20063;-71
2022/06/02 04:26:26;;;;;;;4.63;4.22;;;8.80;99.90;;;;;;5022731;28;20124;-71
2022/06/02 04:29:07;;;;;;;3.25;3.05;;;8.80;99.90;;;;;;5022909;28;20128;-70
2022/06/02 04:31:56;;;;;;;3.55;3.25;;;8.80;99.90;;;;;;5021725;28;20096;-71
2022/06/02 04:34:55;;;;;;;6.15;3.22;;;8.90;99.90;;;;;;5022343;28;20038;-71
2022/06/02 04:37:26;;;;;;;3.78;3.47;;;8.90;99.90;;;;;;5020113;28;20053;-71
2022/06/02 04:40:37;;;;;;;4.43;3.92;;;8.90;99.90;;;;;;5022065;28;20080;-71
2022/06/02 04:43:27;;;;;;;3.97;3.67;;;9.00;99.90;;;;;;5019443;28;20041;-73
2022/06/02 04:46:07;;;;;;;4.07;3.78;;;9.10;99.90;;;;;;5020939;28;20050;-72
2022/06/02 04:48:52;;;;;;;4.60;3.78;;;9.10;99.90;;;;;;5001512;28;20088;-73
2022/06/02 04:51:26;;;;;;;3.95;3.55;;;9.20;99.90;;;;;;5002657;28;20137;-72
2022/06/02 04:54:16;;;;;;;3.90;3.58;;;9.30;99.90;;;;;;5001746;28;20073;-73
2022/06/02 04:56:56;;;;;;;3.92;3.40;;;9.30;99.90;;;;;;5001104;28;20050;-73
2022/06/02 04:59:48;;;;;;;7.38;4.00;;;9.40;99.90;;;;;;5001777;28;20045;-72
2022/06/02 05:02:47;;;;;;;5.63;5.10;;;9.50;99.90;;;;;;5007837;28;20183;-73
2022/06/02 05:05:42;;;;;;;3.80;3.30;;;9.60;99.90;;;;;;5021484;28;20050;-73
2022/06/02 05:08:14;;;;;;;3.35;3.10;;;9.70;99.90;;;;;;5019198;28;20069;-73
2022/06/02 05:11:13;;;;;;;3.72;3.42;;;9.70;99.90;;;;;;5022476;28;20105;-70
2022/06/02 05:14:00;;;;;;;4.45;3.35;;;9.90;99.90;;;;;;5021628;28;20049;-71
2022/06/02 05:16:56;;;;;;;2.97;2.53;;;10.00;99.90;;;;;;5022042;28;20052;-72
2022/06/02 05:19:36;;;;;;;2.42;2.22;;;10.10;99.90;;;;;;5021518;28;20060;-73
2022/06/02 05:22:21;;;;;;;2.13;1.92;;;10.20;99.90;;;;;;5020411;28;20049;-72
2022/06/02 05:24:59;;;;;;;2.50;2.03;;;10.30;99.90;;;;;;5003150;28;20052;-73
2022/06/02 05:28:00;;;;;;;4.13;2.17;;;10.40;99.90;;;;;;5020020;28;20053;-72
2022/06/02 05:30:35;;;;;;;3.22;2.03;;;10.50;99.90;;;;;;4982657;28;20111;-72
2022/06/02 05:33:09;;;;;;;2.85;1.95;;;10.60;99.90;;;;;;5002468;28;20057;-72
2022/06/02 05:35:40;;;;;;;4.50;2.15;;;10.70;99.90;;;;;;5000861;28;20131;-72
2022/06/02 05:38:25;;;;;;;1.40;1.33;;;10.80;99.90;;;;;;5000962;28;20428;-72
2022/06/02 05:41:26;;;;;;;1.83;1.73;;;10.90;99.90;;;;;;5018613;28;20672;-72
2022/06/02 05:43:55;;;;;;;2.28;1.70;;;10.90;99.90;;;;;;5015329;28;20096;-72
2022/06/02 05:46:39;;;;;;;4.40;1.70;;;11.00;99.90;;;;;;5021612;28;20156;-71
2022/06/02 05:49:08;;;;;;;1.92;1.83;;;11.10;99.90;;;;;;5019954;28;20562;-71
2022/06/02 05:51:41;;;;;;;1.50;1.23;;;11.20;99.90;;;;;;5021434;28;20080;-72
2022/06/02 05:54:10;;;;;;;5.05;1.80;;;11.30;99.90;;;;;;5008731;28;20471;-72
2022/06/02 05:57:00;;;;;;;2.38;1.85;;;11.40;99.90;;;;;;5017324;28;20646;-71
2022/06/02 05:59:56;;;;;;;2.05;1.83;;;11.50;99.90;;;;;;5020474;28;20128;-71
2022/06/02 06:02:36;;;;;;;6.45;1.45;;;11.60;99.90;;;;;;5014730;28;20092;-85
2022/06/02 06:05:08;;;;;;;0.95;0.93;;;11.60;99.90;;;;;;5013660;28;20052;-72
2022/06/02 06:08:12;;;;;;;4.22;0.80;;;11.80;99.90;;;;;;5020385;28;20068;-72
2022/06/02 06:10:48;;;;;;;1.17;1.10;;;11.90;99.90;;;;;;4981530;28;20085;-71
2022/06/02 06:13:23;;;;;;;3.90;1.58;;;11.90;99.90;;;;;;5025227;28;20034;-72
2022/06/02 06:16:03;;;;;;;3.58;1.08;;;12.00;99.90;;;;;;5024417;28;20139;-72
2022/06/02 06:18:56;;;;;;;1.45;1.00;;;12.00;99.90;;;;;;5024051;28;20053;-72
2022/06/02 06:21:52;;;;;;;1.02;0.93;;;12.00;99.90;;;;;;5007386;28;20065;-71
2022/06/02 06:24:37;;;;;;;0.57;0.57;;;12.00;99.90;;;;;;5024518;28;20049;-72
2022/06/02 06:27:38;;;;;;;0.82;0.70;;;12.10;99.90;;;;;;5023545;28;20084;-72
2022/06/02 06:30:07;;;;;;;1.27;0.63;;;12.10;99.90;;;;;;5024852;28;20045;-72
2022/06/02 06:32:38;;;;;;;0.82;0.82;;;12.10;99.90;;;;;;5024600;28;20138;-72
2022/06/02 06:35:22;;;;;;;0.57;0.57;;;12.20;99.90;;;;;;5024541;28;20266;-73
2022/06/02 06:37:53;;;;;;;1.58;1.42;;;12.30;99.90;;;;;;5022625;28;20041;-72
2022/06/02 06:40:35;;;;;;;2.50;0.87;;;12.30;99.90;;;;;;5024374;28;20049;-72
2022/06/02 06:43:25;;;;;;;0.63;0.63;;;12.30;99.90;;;;;;5024422;28;20373;-73
2022/06/02 06:46:25;;;;;;;0.80;0.80;;;12.30;99.90;;;;;;5012344;28;20393;-72
2022/06/02 06:49:02;;;;;;;1.08;0.90;;;12.30;99.90;;;;;;5006525;28;20085;-72
2022/06/02 06:51:49;;;;;;;0.98;0.88;;;12.40;99.90;;;;;;5023589;28;20640;-72
2022/06/02 06:54:26;;;;;;;2.55;0.60;;;12.40;99.90;;;;;;5007950;28;20454;-72
2022/06/02 06:57:00;;;;;;;0.80;0.43;;;12.40;99.90;;;;;;5019646;28;20041;-72
2022/06/02 06:59:58;;;;;;;3.25;1.00;;;12.40;99.90;;;;;;5022902;28;20048;-72
2022/06/02 07:03:17;;;;;;;2.95;1.30;;;12.50;99.90;;;;;;5023135;28;20056;-72
2022/06/02 07:05:57;;;;;;;3.33;1.02;;;12.60;99.90;;;;;;4982275;28;20050;-72
2022/06/02 07:08:48;;;;;;;1.55;1.10;;;12.70;99.90;;;;;;5018691;28;20038;-71
2022/06/02 07:14:20;;;;;;;0.98;0.98;;;12.70;99.90;;;;;;5014210;28;20053;-72
2022/06/02 07:16:56;;;;;;;0.73;0.73;;;12.80;99.90;;;;;;5006614;28;20041;-72
2022/06/02 07:19:32;;;;;;;0.90;0.90;;;12.90;99.90;;;;;;5023189;28;20040;-72
2022/06/02 07:22:37;;;;;;;3.65;1.20;;;12.90;99.90;;;;;;5020082;28;20057;-73
2022/06/02 07:25:23;;;;;;;0.90;0.90;;;12.80;99.90;;;;;;5012012;28;20551;-73
2022/06/02 07:28:22;;;;;;;1.10;1.00;;;12.90;99.90;;;;;;5022524;28;20138;-73
2022/06/02 07:31:09;;;;;;;1.33;0.95;;;13.10;99.90;;;;;;5005708;28;20045;-73
2022/06/02 07:33:52;;;;;;;2.25;0.95;;;13.20;99.90;;;;;;5022314;28;20046;-73
2022/06/02 07:36:38;;;;;;;1.55;1.15;;;13.20;99.90;;;;;;5023383;28;20067;-73
2022/06/02 07:39:29;;;;;;;0.80;0.77;;;13.20;99.90;;;;;;5021131;28;20050;-73
2022/06/02 07:42:16;;;;;;;1.40;1.15;;;13.20;99.90;;;;;;5023707;28;20124;-72
2022/06/02 07:45:15;;;;;;;0.88;0.88;;;13.20;99.90;;;;;;5022800;28;20102;-72
2022/06/02 07:48:31;;;;;;;1.02;0.68;;;13.30;99.90;;;;;;5023223;28;20380;-72
2022/06/02 07:51:36;;;;;;;0.77;0.77;;;13.40;99.90;;;;;;4945128;28;20097;-72
2022/06/02 07:54:23;;;;;;;1.40;1.30;;;13.40;99.90;;;;;;4907986;28;20189;-73
2022/06/02 07:57:05;;;;;;;0.90;0.90;;;13.50;99.90;;;;;;4999702;28;20084;-73
2022/06/02 07:59:42;;;;;;;2.50;0.90;;;13.50;99.90;;;;;;5017565;28;20033;-75
2022/06/02 08:02:17;;;;;;;3.00;0.60;;;13.50;99.90;;;;;;5009550;28;20064;-73
2022/06/02 08:04:52;;;;;;;0.73;0.65;;;13.50;99.90;;;;;;5023175;28;20053;-73
2022/06/02 08:07:26;;;;;;;1.02;1.02;;;;;;;;;;5020869;28;20053;-73
2022/06/02 08:10:22;;;;;;;1.20;0.90;;;13.70;99.90;;;;;;5022773;28;20129;-73
2022/06/02 08:13:29;;;;;;;0.85;0.85;;;13.80;99.90;;;;;;5014095;28;20049;-73
2022/06/02 08:16:00;;;;;;;0.50;0.50;;;13.80;99.90;;;;;;5003128;28;20492;-73
2022/06/02 08:18:26;;;;;;;0.45;0.45;;;13.70;99.90;;;;;;5021855;28;20038;-73
2022/06/02 08:21:16;;;;;;;0.50;0.50;;;13.70;99.90;;;;;;5020754;28;20041;-73
2022/06/02 08:24:04;;;;;;;1.55;0.65;;;13.70;99.90;;;;;;5019970;28;20118;-73
2022/06/02 08:26:58;;;;;;;0.80;0.80;;;13.70;99.90;;;;;;4988649;28;20088;-73
2022/06/02 08:29:45;;;;;;;1.23;0.77;;;13.70;99.90;;;;;;4986908;28;20069;-73
2022/06/02 08:32:26;;;;;;;0.85;0.85;;;13.80;99.90;;;;;;5014936;28;20054;-73
2022/06/02 08:35:04;;;;;;;1.45;0.88;;;13.80;99.90;;;;;;5022308;28;20522;-73
2022/06/02 08:37:42;;;;;;;0.90;0.90;;;13.70;99.90;;;;;;5020341;28;20085;-72
2022/06/02 08:41:01;;;;;;;0.50;0.50;;;13.70;99.90;;;;;;5021927;28;20089;-73
2022/06/02 08:43:56;;;;;;;0.93;0.93;;;13.70;99.90;;;;;;4961253;28;20051;-73
2022/06/02 08:46:50;;;;;;;1.30;0.82;;;13.80;99.90;;;;;;4944108;28;20548;-73
2022/06/02 08:49:41;;;;;;;0.40;0.40;;;13.90;99.90;;;;;;5017431;28;20133;-73
2022/06/02 08:52:31;;;;;;;2.30;0.63;;;14.00;99.90;;;;;;5019570;28;20057;-74
2022/06/02 08:55:15;;;;;;;1.52;0.93;;;14.00;99.90;;;;;;5022591;28;20053;-73
2022/06/02 08:57:49;;;;;;;0.98;0.85;;;14.10;99.90;;;;;;5004206;28;20404;-74
2022/06/02 09:00:53;;;;;;;0.88;0.88;;;14.10;99.90;;;;;;5021421;28;20118;-74
2022/06/02 09:03:53;;;;;;;0.93;0.93;;;14.10;99.90;;;;;;5021336;28;20083;-73
2022/06/02 09:06:46;;;;;;;1.92;1.05;;;14.00;99.90;;;;;;5021754;28;20068;-73
2022/06/02 09:09:17;;;;;;;6.20;1.38;;;14.10;99.90;;;;;;5020157;28;20055;-73
2022/06/02 09:12:01;;;;;;;1.83;1.43;;;14.20;99.90;;;;;;5020444;28;20045;-73
2022/06/02 09:15:04;;;;;;;1.00;1.00;;;14.30;99.90;;;;;;5020876;28;20292;-73
2022/06/02 09:17:48;;;;;;;0.75;0.75;;;14.40;99.90;;;;;;5020334;28;20057;-73
2022/06/02 09:20:40;;;;;;;4.30;0.85;;;14.50;99.90;;;;;;5021146;28;20122;-73
2022/06/02 09:23:15;;;;;;;3.08;1.25;;;14.40;99.90;;;;;;5019408;28;20535;-74
2022/06/02 09:26:18;;;;;;;0.80;0.80;;;14.40;99.90;;;;;;5020305;28;20056;-73
2022/06/02 09:28:56;;;;;;;0.98;0.90;;;14.40;99.90;;;;;;5020049;28;20080;-74
2022/06/02 09:31:43;;;;;;;0.82;0.77;;;14.50;99.90;;;;;;5020174;28;20054;-74
2022/06/02 09:34:33;;;;;;;0.50;0.50;;;14.50;99.90;;;;;;5018654;28;20075;-73
2022/06/02 09:37:21;;;;;;;0.50;0.50;;;14.50;99.90;;;;;;5016420;28;20088;-73
2022/06/02 09:40:23;;;;;;;0.82;0.82;;;14.60;99.90;;;;;;5017450;28;20045;-73
2022/06/02 09:43:08;;;;;;;;;;;14.70;99.90;;;;;;5019269;28;20041;-74
2022/06/02 09:46:10;;;;;;;1.52;1.42;;;14.60;99.90;;;;;;5021627;28;20359;-76
2022/06/02 09:48:45;;;;;;;1.42;1.15;;;14.60;99.90;;;;;;5017867;28;20104;-75
2022/06/02 09:51:31;;;;;;;1.25;1.08;;;14.70;99.90;;;;;;5024122;28;20044;-76
2022/06/02 09:54:21;;;;;;;1.17;1.08;;;14.70;99.90;;;;;;5005473;28;20614;-76
2022/06/02 09:57:55;;;;;;;0.70;0.70;;;14.80;99.90;;;;;;5023809;28;20192;-78
2022/06/02 10:00:13;;;;;;;0.63;0.63;;;14.80;99.90;;;;;;5022677;28;20128;-75
2022/06/02 10:03:17;;;;;;;1.42;0.98;;;14.90;99.90;;;;;;5022665;28;20537;-75
2022/06/02 10:06:12;;;;;;;1.15;0.65;;;14.90;99.90;;;;;;5000061;28;20060;-78
2022/06/02 10:09:17;;;;;;;9.63;0.90;;;14.90;99.90;;;;;;5022001;28;20117;-76
2022/06/02 10:12:54;;;;;;;3.67;1.10;;;15.00;99.90;;;;;;5022469;28;20144;-77
2022/06/02 10:15:13;;;;;;;2.70;0.90;;;15.10;99.90;;;;;;5022289;28;20085;-77
2022/06/02 10:17:58;;;;;;;1.02;0.73;;;15.10;99.90;;;;;;5021221;28;20049;-74
2022/06/02 10:21:00;;;;;;;0.95;0.95;;;15.10;99.90;;;;;;5023116;28;20045;-74
2022/06/02 10:23:38;;;;;;;1.27;0.80;;;15.20;99.90;;;;;;5019168;28;20606;-73
2022/06/02 10:26:39;;;;;;;0.70;0.70;;;15.20;99.90;;;;;;5014444;28;20057;-74
2022/06/02 10:29:40;;;;;;;0.55;0.55;;;15.20;99.90;;;;;;5023112;28;20049;-73
2022/06/02 10:32:18;;;;;;;1.48;1.00;;;15.20;99.90;;;;;;5023120;28;20077;-73
2022/06/02 10:35:14;;;;;;;0.47;0.47;;;15.20;99.90;;;;;;5024634;28;20168;-74
2022/06/02 10:38:01;;;;;;;0.40;0.40;;;15.20;99.90;;;;;;5005851;28;20042;-73
2022/06/02 10:40:45;;;;;;;0.75;0.75;;;15.20;99.90;;;;;;5024041;28;20137;-72
2022/06/02 10:43:55;;;;;;;1.75;1.02;;;15.20;99.90;;;;;;5024800;28;20053;-73
2022/06/02 10:47:00;;;;;;;0.70;0.70;;;15.30;99.90;;;;;;5007940;28;20606;-73
2022/06/02 10:49:53;;;;;;;0.60;0.60;;;15.40;99.90;;;;;;4993583;28;20049;-72
2022/06/02 10:52:38;;;;;;;0.50;0.50;;;15.40;99.90;;;;;;5023627;28;20052;-73
2022/06/02 10:55:24;;;;;;;0.95;0.82;;;15.50;99.90;;;;;;5022396;28;20088;-73
2022/06/02 10:58:11;;;;;;;0.65;0.65;;;15.50;99.90;;;;;;5023624;28;20536;-73
2022/06/02 11:00:39;;;;;;;1.10;0.85;;;15.60;99.90;;;;;;5023570;28;20045;-74
2022/06/02 11:03:31;;;;;;;0.77;0.77;;;15.60;99.90;;;;;;5022709;28;20057;-77
2022/06/02 11:06:28;;;;;;;1.35;0.85;;;15.60;99.90;;;;;;5021716;28;20565;-76
2022/06/02 11:09:19;;;;;;;0.73;0.73;;;15.60;99.90;;;;;;5004951;28;20103;-75
2022/06/02 11:12:13;;;;;;;0.40;0.40;;;15.70;99.90;;;;;;5020183;28;20085;-75
2022/06/02 11:15:34;;;;;;;0.50;0.50;;;15.80;99.90;;;;;;5021423;28;20491;-76
2022/06/02 11:18:20;;;;;;;1.10;0.70;;;15.80;99.90;;;;;;4934401;29;20051;-75
2022/06/02 11:21:32;;;;;;;1.27;0.73;;;15.90;99.90;;;;;;5013745;28;20144;-77
2022/06/02 11:24:24;;;;;;;1.13;0.93;;;15.90;99.90;;;;;;5023457;28;20172;-76
2022/06/02 11:27:31;;;;;;;1.58;0.93;;;15.90;99.90;;;;;;5021318;28;20051;-75
2022/06/02 11:30:07;;;;;;;1.27;0.73;;;15.90;99.90;;;;;;5021421;28;20044;-76
2022/06/02 11:33:13;;;;;;;0.68;0.60;;;16.10;99.90;;;;;;5020974;28;20063;-77
2022/06/02 11:35:42;;;;;;;0.80;0.77;;;16.20;99.90;;;;;;5022305;28;20048;-75
2022/06/02 11:38:38;;;;;;;1.75;1.05;;;16.20;99.90;;;;;;5027004;28;20049;-75
2022/06/02 11:41:16;;;;;;;1.13;0.63;;;16.30;99.90;;;;;;5021029;28;20041;-72
2022/06/02 11:44:10;;;;;;;0.80;0.70;;;16.30;99.90;;;;;;5019465;28;20041;-75
2022/06/02 11:46:47;;;;;;;1.35;0.70;;;16.30;99.90;;;;;;5020657;28;20072;-75
2022/06/02 11:49:19;;;;;;;2.05;0.80;;;16.30;99.90;;;;;;5035340;28;20049;-75
2022/06/02 11:52:08;;;;;;;0.70;0.70;;;16.30;99.90;;;;;;5019788;28;20045;-76
2022/06/02 11:55:14;;;;;;;0.43;0.43;;;16.20;99.90;;;;;;5019370;28;20038;-76
2022/06/02 11:58:08;;;;;;;0.63;0.63;;;16.10;99.90;;;;;;5019486;28;20088;-75
2022/06/02 12:00:59;;;;;;;1.08;1.08;;;16.00;99.90;;;;;;5018207;28;20037;-76
2022/06/02 12:03:55;;;;;;;1.00;1.00;;;16.10;99.90;;;;;;5019295;28;20045;-75
2022/06/02 12:06:40;;;;;;;0.93;0.60;;;16.10;99.90;;;;;;5019065;28;20057;-77
2022/06/02 12:09:39;;;;;;;0.73;0.73;;;16.20;99.90;;;;;;5019635;28;20053;-75
2022/06/02 12:12:43;;;;;;;0.70;0.70;;;16.20;99.90;;;;;;5019814;28;20066;-75
2022/06/02 12:15:37;;;;;;;0.77;0.75;;;16.20;99.90;;;;;;5018946;28;20049;-76
2022/06/02 12:18:05;;;;;;;1.98;0.85;;;16.20;99.90;;;;;;5021048;28;20128;-76
2022/06/02 12:20:58;;;;;;;1.15;1.00;;;16.20;99.90;;;;;;5021611;28;20124;-74
2022/06/02 12:23:55;;;;;;;1.80;1.17;;;16.30;99.90;;;;;;5019465;28;20049;-76
2022/06/02 12:26:48;;;;;;;0.40;0.40;;;16.40;99.90;;;;;;5018836;28;20045;-77
2022/06/02 12:29:35;;;;;;;0.80;0.80;;;16.40;99.90;;;;;;5001715;28;20132;-79
2022/06/02 12:32:16;;;;;;;1.13;0.70;;;16.50;99.90;;;;;;5020690;28;20052;-78
2022/06/02 12:35:20;;;;;;;1.75;1.05;;;16.50;99.90;;;;;;5020447;28;20232;-75
2022/06/02 12:38:15;;;;;;;3.10;1.45;;;16.50;99.90;;;;;;5019989;28;20041;-74
2022/06/02 12:41:02;;;;;;;1.55;0.88;;;16.50;99.90;;;;;;5019002;28;20041;-76
2022/06/02 12:44:00;;;;;;;0.50;0.50;;;16.40;99.90;;;;;;5001076;28;20064;-75
2022/06/02 12:46:44;;;;;;;1.80;1.10;;;16.30;99.90;;;;;;5020086;28;20051;-75
2022/06/02 12:49:35;;;;;;;2.95;1.08;;;16.40;99.90;;;;;;5021839;28;20046;-76
2022/06/02 12:52:47;;;;;;;0.70;0.68;;;16.40;99.90;;;;;;5012101;28;20054;-75
2022/06/02 12:55:59;;;;;;;0.95;0.77;;;16.40;99.90;;;;;;5020495;28;20049;-73
2022/06/02 12:59:01;;;;;;;0.63;0.63;;;16.60;99.90;;;;;;5023060;28;20483;-73
2022/06/02 13:02:02;;;;;;;0.82;0.50;;;16.60;99.90;;;;;;5001147;28;20300;-75
2022/06/02 13:04:58;;;;;;;1.05;0.70;;;16.60;99.90;;;;;;5015839;28;20060;-75
2022/06/02 13:07:56;;;;;;;0.68;0.68;;;16.70;99.90;;;;;;5013045;28;20042;-76
2022/06/02 13:10:46;;;;;;;0.68;0.60;;;16.80;99.90;;;;;;5015251;28;20340;-76
2022/06/02 13:13:29;;;;;;;1.50;0.60;;;16.80;99.90;;;;;;5021199;28;20531;-75
2022/06/02 13:16:16;;;;;;;0.75;0.65;;;16.80;99.90;;;;;;5018723;28;20054;-75
2022/06/02 13:19:01;;;;;;;6.70;0.93;;;16.80;99.90;;;;;;5002122;28;20053;-74
2022/06/02 13:21:36;;;;;;;1.20;0.82;;;16.70;99.90;;;;;;5021032;28;20112;-74
2022/06/02 13:24:33;;;;;;;1.25;0.98;;;16.80;99.90;;;;;;5018426;28;20041;-75
2022/06/02 13:27:40;;;;;;;0.75;0.70;;;16.90;99.90;;;;;;5020648;28;20430;-74
2022/06/02 13:30:20;;;;;;;0.47;0.47;;;16.90;99.90;;;;;;5016325;28;20038;-75
2022/06/02 13:33:16;;;;;;;0.40;0.40;;;16.90;99.90;;;;;;5000491;28;20081;-74
2022/06/02 13:36:38;;;;;;;0.63;0.63;;;16.90;99.90;;;;;;5017589;28;20080;-74
2022/06/02 13:39:10;;;;;;;0.60;0.60;;;16.90;99.90;;;;;;4961299;28;20046;-74
2022/06/02 13:41:38;;;;;;;1.53;0.93;;;17.00;99.90;;;;;;5009822;28;20591;-74
2022/06/02 13:44:41;;;;;;;0.52;0.52;;;17.10;99.90;;;;;;5018495;28;20292;-75
2022/06/02 13:47:29;;;;;;;2.97;0.95;;;17.10;99.90;;;;;;5016457;28;20044;-75
2022/06/02 13:50:14;;;;;;;0.80;0.80;;;17.00;99.90;;;;;;5019187;28;20045;-74
2022/06/02 13:52:58;;;;;;;0.90;0.43;;;16.90;99.90;;;;;;5018595;28;20037;-75
2022/06/02 13:58:36;;;;;;;1.60;0.98;;;16.80;99.90;;;;;;5018724;28;20568;-74
2022/06/02 14:01:16;;;;;;;0.70;0.70;;;16.90;99.90;;;;;;5019936;28;20044;-75
2022/06/02 14:04:17;;;;;;;0.70;0.60;;;17.00;99.90;;;;;;5020609;28;20069;-75
2022/06/02 14:07:09;;;;;;;0.45;0.45;;;17.10;99.90;;;;;;4981587;28;20119;-78
2022/06/02 14:09:53;;;;;;;4.68;0.90;;;17.30;99.90;;;;;;5018570;28;20041;-75
2022/06/02 14:12:37;;;;;;;0.68;0.60;;;17.40;99.90;;;;;;5019730;28;20160;-75
2022/06/02 14:15:07;;;;;;;1.65;1.05;;;17.50;99.90;;;;;;5020607;28;20232;-75
2022/06/02 14:17:47;;;;;;;1.02;0.60;;;17.60;99.90;;;;;;5020741;28;20037;-74
2022/06/02 14:20:21;;;;;;;0.73;0.73;;;17.60;99.90;;;;;;5018161;28;20053;-75
2022/06/02 14:23:08;;;;;;;0.90;0.75;;;17.60;99.90;;;;;;5018969;28;20037;-78
2022/06/02 14:26:07;;;;;;;0.95;0.95;;;17.60;99.90;;;;;;5018175;28;20137;-74
2022/06/02 14:28:53;;;;;;;1.27;0.93;;;17.50;99.90;;;;;;5017558;28;20072;-75
2022/06/02 14:31:33;;;;;;;4.50;1.38;;;17.40;99.90;;;;;;5019203;28;20042;-74
2022/06/02 14:34:18;;;;;;;0.70;0.70;;;17.30;99.90;;;;;;5022890;28;20903;-76
2022/06/02 14:36:46;;;;;;;1.15;1.08;;;17.20;99.90;;;;;;5020328;28;20172;-73
2022/06/02 14:39:37;;;;;;;2.72;0.75;;;17.20;99.90;;;;;;5021595;28;20046;-76
2022/06/02 14:42:18;;;;;;;1.85;1.10;;;17.20;99.90;;;;;;5020788;28;20052;-78
2022/06/02 14:44:59;;;;;;;1.58;1.45;;;17.10;99.90;;;;;;5022412;28;20037;-75